createdAt,value
2019-03-22T00:00:21.992Z,120.23
2019-03-22T00:02:51.384Z,118.93
2019-03-22T00:05:20.727Z,121.27
2019-03-22T00:07:50.128Z,103.73
2019-03-22T00:10:19.509Z,105.97
2019-03-22T00:12:48.876Z,91.40
2019-03-22T00:15:18.196Z,94.73
2019-03-22T00:17:47.570Z,107.43
2019-03-22T00:20:16.956Z,97.47
2019-03-22T00:22:46.384Z,102.63
2019-03-22T00:25:16.930Z,100.60
2019-03-22T00:27:46.352Z,89.90
2019-03-22T00:30:15.886Z,98.07
2019-03-22T00:32:45.377Z,93.47
2019-03-22T00:35:14.866Z,88.93
2019-03-22T00:37:44.244Z,86.97
2019-03-22T00:40:13.757Z,86.20
2019-03-22T00:42:43.132Z,87.20
2019-03-22T00:45:12.780Z,86.07
2019-03-22T00:47:42.248Z,81.00
2019-03-22T00:50:11.902Z,89.10
2019-03-22T00:52:41.463Z,80.10
2019-03-22T00:55:11.031Z,72.30
2019-03-22T00:57:40.594Z,76.30
2019-03-22T01:00:10.373Z,71.13
2019-03-22T01:02:39.889Z,66.07
2019-03-22T01:05:09.830Z,65.33
2019-03-22T01:07:39.579Z,71.20
2019-03-22T01:10:09.801Z,67.57
2019-03-22T01:12:39.432Z,64.57
2019-03-22T01:15:09.431Z,58.40
2019-03-22T01:17:38.949Z,66.83
2019-03-22T01:20:08.752Z,68.50
2019-03-22T01:22:38.311Z,64.80
2019-03-22T01:25:08.679Z,68.07
2019-03-22T01:27:40.622Z,63.67
2019-03-22T01:30:10.248Z,64.47
2019-03-22T01:32:39.757Z,69.93
2019-03-22T01:35:09.597Z,67.20
2019-03-22T01:37:39.066Z,67.50
2019-03-22T01:40:09.043Z,68.00
2019-03-22T01:42:38.693Z,66.43
2019-03-22T01:45:08.816Z,65.47
2019-03-22T01:47:38.813Z,67.43
2019-03-22T01:50:09.877Z,62.80
2019-03-22T01:52:40.155Z,67.00
2019-03-22T01:55:10.599Z,63.67
2019-03-22T01:57:51.927Z,70.83
2019-03-22T02:00:12.279Z,59.60
2019-03-22T02:02:41.788Z,64.80
2019-03-22T02:05:11.518Z,60.67
2019-03-22T02:07:40.981Z,66.53
2019-03-22T02:10:11.520Z,59.33
2019-03-22T02:12:40.984Z,65.87
2019-03-22T02:15:13.337Z,72.57
2019-03-22T02:17:43.069Z,60.57
2019-03-22T02:20:12.907Z,63.43
2019-03-22T02:22:42.383Z,68.20
2019-03-22T02:25:12.020Z,64.70
2019-03-22T02:27:41.848Z,66.43
2019-03-22T02:30:11.923Z,65.83
2019-03-22T02:32:41.406Z,62.70
2019-03-22T02:35:28.376Z,69.83
2019-03-22T02:37:46.648Z,68.63
2019-03-22T02:40:16.113Z,72.40
2019-03-22T02:42:45.650Z,72.07
2019-03-22T02:45:15.311Z,70.07
2019-03-22T02:47:44.858Z,68.47
2019-03-22T02:50:18.535Z,66.27
2019-03-22T02:52:45.857Z,66.30
2019-03-22T02:55:15.300Z,64.03
2019-03-22T02:57:44.905Z,70.37
2019-03-22T03:00:15.570Z,65.27
2019-03-22T03:02:45.158Z,62.13
2019-03-22T03:05:15.433Z,65.20
2019-03-22T03:07:45.134Z,66.83
2019-03-22T03:10:15.689Z,67.47
2019-03-22T03:12:45.565Z,64.27
2019-03-22T03:15:15.596Z,63.63
2019-03-22T03:17:45.231Z,62.97
2019-03-22T03:20:15.049Z,66.63
2019-03-22T03:22:44.718Z,62.10
2019-03-22T03:25:15.078Z,67.70
2019-03-22T03:27:44.704Z,67.90
2019-03-22T03:30:15.858Z,68.03
2019-03-22T03:32:45.373Z,63.77
2019-03-22T03:35:15.331Z,66.57
2019-03-22T03:37:45.168Z,68.67
2019-03-22T03:40:15.116Z,58.63
2019-03-22T03:42:44.607Z,65.17
2019-03-22T03:45:34.373Z,60.80
2019-03-22T03:48:05.054Z,61.67
2019-03-22T03:50:34.810Z,64.93
2019-03-22T03:53:04.451Z,64.37
2019-03-22T03:55:34.080Z,72.23
2019-03-22T03:58:03.885Z,69.23
2019-03-22T04:00:33.873Z,69.37
2019-03-22T04:03:03.631Z,63.97
2019-03-22T04:05:33.361Z,59.50
2019-03-22T04:08:03.046Z,69.57
2019-03-22T04:10:32.755Z,72.27
2019-03-22T04:13:02.391Z,63.27
2019-03-22T04:15:32.209Z,70.87
2019-03-22T04:18:01.783Z,69.43
2019-03-22T04:20:31.397Z,68.53
2019-03-22T04:23:00.962Z,72.73
2019-03-22T04:25:30.680Z,74.57
2019-03-22T04:28:00.377Z,73.10
2019-03-22T04:30:30.141Z,73.23
2019-03-22T04:32:59.743Z,67.23
2019-03-22T04:35:29.328Z,77.83
2019-03-22T04:37:58.854Z,73.80
2019-03-22T04:40:28.930Z,68.87
2019-03-22T04:42:58.562Z,67.87
2019-03-22T04:45:30.306Z,69.83
2019-03-22T04:48:04.865Z,71.87
2019-03-22T04:50:37.705Z,68.70
2019-03-22T04:53:10.401Z,80.17
2019-03-22T04:55:41.518Z,87.30
2019-03-22T04:58:12.015Z,83.97
2019-03-22T05:00:43.073Z,96.87
2019-03-22T05:03:13.387Z,82.00
2019-03-22T05:05:44.109Z,86.20
2019-03-22T05:08:15.961Z,78.50
2019-03-22T05:10:46.429Z,94.07
2019-03-22T05:13:19.355Z,69.07
2019-03-22T05:15:49.317Z,76.90
2019-03-22T05:18:19.113Z,86.00
2019-03-22T05:20:49.795Z,80.37
2019-03-22T05:23:22.166Z,80.63
2019-03-22T05:25:54.842Z,81.40
2019-03-22T05:28:26.065Z,78.67
2019-03-22T05:31:35.001Z,83.90
2019-03-22T05:34:04.536Z,76.37
2019-03-22T05:36:34.335Z,75.43
2019-03-22T05:39:05.831Z,66.70
2019-03-22T05:41:35.563Z,72.00
2019-03-22T05:44:05.193Z,80.70
2019-03-22T05:46:34.831Z,76.23
2019-03-22T05:49:04.495Z,78.70
2019-03-22T05:51:34.171Z,78.03
2019-03-22T05:54:04.139Z,85.83
2019-03-22T05:56:33.597Z,76.20
2019-03-22T05:59:03.101Z,77.43
2019-03-22T06:01:32.691Z,78.27
2019-03-22T06:04:02.275Z,70.80
2019-03-22T06:06:31.903Z,79.90
2019-03-22T06:09:01.499Z,72.67
2019-03-22T06:11:31.319Z,75.97
2019-03-22T06:14:02.130Z,90.30
2019-03-22T06:16:31.677Z,72.30
2019-03-22T06:19:01.255Z,81.20
2019-03-22T06:21:30.947Z,75.07
2019-03-22T06:24:00.525Z,71.10
2019-03-22T06:26:30.191Z,69.10
2019-03-22T06:28:59.936Z,70.80
2019-03-22T06:31:29.921Z,73.23
2019-03-22T06:33:59.683Z,71.30
2019-03-22T06:36:29.195Z,71.07
2019-03-22T06:38:58.717Z,74.67
2019-03-22T06:41:28.218Z,69.30
2019-03-22T06:43:57.891Z,65.17
2019-03-22T06:46:27.451Z,68.67
2019-03-22T06:48:56.889Z,67.53
2019-03-22T06:51:26.293Z,83.63
2019-03-22T06:53:55.727Z,94.03
2019-03-22T06:56:25.275Z,92.60
2019-03-22T06:58:54.709Z,81.50
2019-03-22T07:01:24.093Z,93.67
2019-03-22T07:03:53.477Z,87.40
2019-03-22T07:06:22.896Z,80.23
2019-03-22T07:08:52.333Z,72.90
2019-03-22T07:11:21.815Z,68.07
2019-03-22T07:13:51.153Z,62.83
2019-03-22T07:16:20.571Z,69.20
2019-03-22T07:18:50.005Z,68.30
2019-03-22T07:21:19.424Z,88.97
2019-03-22T07:23:48.998Z,73.13
2019-03-22T07:26:18.468Z,66.23
2019-03-22T07:28:47.898Z,64.43
2019-03-22T07:31:17.437Z,74.33
2019-03-22T07:33:46.932Z,69.40
2019-03-22T07:36:16.499Z,68.30
2019-03-22T07:38:45.930Z,67.63
2019-03-22T07:41:15.367Z,63.93
2019-03-22T07:43:44.909Z,62.30
2019-03-22T07:46:14.354Z,60.20
2019-03-22T07:48:43.804Z,58.67
2019-03-22T07:51:13.390Z,56.90
2019-03-22T07:53:42.800Z,58.83
2019-03-22T07:56:12.325Z,57.63
2019-03-22T07:58:41.692Z,59.37
2019-03-22T08:01:11.058Z,60.80
2019-03-22T08:03:40.555Z,59.10
2019-03-22T08:06:10.022Z,62.40
2019-03-22T08:08:39.400Z,60.93
2019-03-22T08:11:08.878Z,58.13
2019-03-22T08:13:38.367Z,58.80
2019-03-22T08:16:07.860Z,63.53
2019-03-22T08:18:37.390Z,55.10
2019-03-22T08:21:06.955Z,55.80
2019-03-22T08:23:36.353Z,62.03
2019-03-22T08:26:05.788Z,62.13
2019-03-22T08:28:35.446Z,57.10
2019-03-22T08:31:05.728Z,58.40
2019-03-22T08:33:35.268Z,59.83
2019-03-22T08:36:04.932Z,53.00
2019-03-22T08:38:34.315Z,57.13
2019-03-22T08:41:03.692Z,57.90
2019-03-22T08:43:33.246Z,58.17
2019-03-22T08:46:02.699Z,55.43
2019-03-22T08:48:32.204Z,58.67
2019-03-22T08:51:01.584Z,67.57
2019-03-22T08:53:31.072Z,63.97
2019-03-22T08:56:00.541Z,62.70
2019-03-22T08:58:29.925Z,64.00
2019-03-22T09:00:59.463Z,53.93
2019-03-22T09:03:29.197Z,65.83
2019-03-22T09:05:58.628Z,69.20
2019-03-22T09:08:28.056Z,69.03
2019-03-22T09:10:57.508Z,69.53
2019-03-22T09:13:26.944Z,73.53
2019-03-22T09:15:56.384Z,72.27
2019-03-22T09:18:25.794Z,77.80
2019-03-22T09:20:55.423Z,72.40
2019-03-22T09:23:24.845Z,64.73
2019-03-22T09:25:54.310Z,61.60
2019-03-22T09:28:23.788Z,77.73
2019-03-22T09:30:53.212Z,63.53
2019-03-22T09:33:22.689Z,65.60
2019-03-22T09:35:52.117Z,62.77
2019-03-22T09:38:21.505Z,64.63
2019-03-22T09:40:50.928Z,60.30
2019-03-22T09:43:20.380Z,65.03
2019-03-22T09:45:49.901Z,67.60
2019-03-22T09:48:19.308Z,66.10
2019-03-22T09:50:48.904Z,74.83
2019-03-22T09:53:18.307Z,72.10
2019-03-22T09:55:47.793Z,68.33
2019-03-22T09:58:17.306Z,65.57
2019-03-22T10:00:48.615Z,66.47
2019-03-22T10:03:17.750Z,71.30
2019-03-22T10:05:47.078Z,65.97
2019-03-22T10:08:16.498Z,62.10
2019-03-22T10:10:45.876Z,70.77
2019-03-22T10:13:15.321Z,70.47
2019-03-22T10:15:44.983Z,74.20
2019-03-22T10:18:14.511Z,68.87
2019-03-22T10:20:43.961Z,69.37
2019-03-22T10:23:13.550Z,71.63
2019-03-22T10:25:43.194Z,62.87
2019-03-22T10:28:12.611Z,70.20
2019-03-22T10:30:41.951Z,63.93
2019-03-22T10:33:22.099Z,61.70
2019-03-22T10:35:42.458Z,65.43
2019-03-22T10:38:16.486Z,65.87
2019-03-22T10:40:43.066Z,60.17
2019-03-22T10:43:12.490Z,63.80
2019-03-22T10:45:42.000Z,58.67
2019-03-22T10:48:11.525Z,69.50
2019-03-22T10:50:40.989Z,71.70
2019-03-22T10:53:10.427Z,77.33
2019-03-22T10:55:39.907Z,67.90
2019-03-22T10:58:20.150Z,61.23
2019-03-22T11:00:40.619Z,66.53
2019-03-22T11:03:09.977Z,62.33
2019-03-22T11:05:39.328Z,54.00
2019-03-22T11:08:08.666Z,57.77
2019-03-22T11:10:38.335Z,58.13
2019-03-22T11:13:07.809Z,53.00
2019-03-22T11:15:37.197Z,48.47
2019-03-22T11:18:06.686Z,51.10
2019-03-22T11:20:36.106Z,47.23
2019-03-22T11:23:05.781Z,48.73
2019-03-22T11:25:35.353Z,52.00
2019-03-22T11:28:04.915Z,52.23
2019-03-22T11:30:34.455Z,53.43
2019-03-22T11:33:04.408Z,43.80
2019-03-22T11:35:33.881Z,50.17
2019-03-22T11:38:03.455Z,52.53
2019-03-22T11:40:32.849Z,55.20
2019-03-22T11:43:08.476Z,57.60
2019-03-22T11:45:33.589Z,50.93
2019-03-22T11:48:03.075Z,54.50
2019-03-22T11:50:32.621Z,57.73
2019-03-22T11:53:02.001Z,45.80
2019-03-22T11:55:31.388Z,50.97
2019-03-22T11:58:00.795Z,51.03
2019-03-22T12:00:30.261Z,54.43
2019-03-22T12:02:59.594Z,51.50
2019-03-22T12:05:29.023Z,53.60
2019-03-22T12:07:58.469Z,47.07
2019-03-22T12:10:27.861Z,47.20
2019-03-22T12:12:57.363Z,52.47
2019-03-22T12:15:27.087Z,53.20
2019-03-22T12:17:56.429Z,49.23
2019-03-22T12:20:25.880Z,46.73
2019-03-22T12:22:55.322Z,52.90
2019-03-22T12:25:25.342Z,49.37
2019-03-22T12:27:54.969Z,45.40
2019-03-22T12:30:24.447Z,52.40
2019-03-22T12:32:53.869Z,54.80
2019-03-22T12:35:23.289Z,55.33
2019-03-22T12:37:52.938Z,46.13
2019-03-22T12:40:22.507Z,54.63
2019-03-22T12:42:52.056Z,55.33
2019-03-22T12:45:23.957Z,47.30
2019-03-22T12:47:53.518Z,53.47
2019-03-22T12:50:23.549Z,51.50
2019-03-22T12:52:53.143Z,50.97
2019-03-22T12:55:22.793Z,47.90
2019-03-22T12:57:52.291Z,46.63
2019-03-22T13:00:23.683Z,47.23
2019-03-22T13:02:54.182Z,47.90
2019-03-22T13:05:29.372Z,49.30
2019-03-22T13:07:58.818Z,44.77
2019-03-22T13:10:29.099Z,45.33
2019-03-22T13:12:58.646Z,45.80
2019-03-22T13:15:28.044Z,46.87
2019-03-22T13:17:57.458Z,44.67
2019-03-22T13:20:27.077Z,46.53
2019-03-22T13:22:56.477Z,47.10
2019-03-22T13:25:25.894Z,47.83
2019-03-22T13:27:55.314Z,42.40
2019-03-22T13:30:34.909Z,45.93
2019-03-22T13:33:04.800Z,48.37
2019-03-22T13:35:34.375Z,51.20
2019-03-22T13:38:04.305Z,44.60
2019-03-22T13:40:33.783Z,43.90
2019-03-22T13:43:03.186Z,47.53
2019-03-22T13:45:32.638Z,47.77
2019-03-22T13:48:02.045Z,48.03
2019-03-22T13:50:31.499Z,46.77
2019-03-22T13:53:00.883Z,47.00
2019-03-22T13:55:30.387Z,48.37
2019-03-22T13:57:59.910Z,49.43
2019-03-22T14:00:29.398Z,45.53
2019-03-22T14:03:02.893Z,48.47
2019-03-22T14:05:29.841Z,47.30
2019-03-22T14:07:59.308Z,47.23
2019-03-22T14:10:35.481Z,49.10
2019-03-22T14:13:06.215Z,50.43
2019-03-22T14:15:35.761Z,51.37
2019-03-22T14:18:05.656Z,52.00
2019-03-22T14:20:34.994Z,48.40
2019-03-22T14:23:04.463Z,58.80
2019-03-22T14:25:33.868Z,52.77
2019-03-22T14:28:03.350Z,49.93
2019-03-22T14:30:32.700Z,50.50
2019-03-22T14:33:02.069Z,49.87
2019-03-22T14:35:31.567Z,54.40
2019-03-22T14:38:01.080Z,54.90
2019-03-22T14:40:30.514Z,52.97
2019-03-22T14:42:59.962Z,53.70
2019-03-22T14:45:29.389Z,44.77
2019-03-22T14:47:58.822Z,59.57
2019-03-22T14:50:28.276Z,51.93
2019-03-22T14:52:57.630Z,50.13
2019-03-22T14:55:27.368Z,46.73
2019-03-22T14:57:56.765Z,57.83
2019-03-22T15:00:26.184Z,52.90
2019-03-22T15:02:55.642Z,50.87
2019-03-22T15:05:25.064Z,50.87
2019-03-22T15:07:54.445Z,49.40
2019-03-22T15:10:23.758Z,46.23
2019-03-22T15:12:53.198Z,55.00
2019-03-22T15:15:29.574Z,51.00
2019-03-22T15:18:11.316Z,48.77
2019-03-22T15:20:59.810Z,55.73
2019-03-22T15:23:52.305Z,48.97
2019-03-22T15:26:40.808Z,50.67
2019-03-22T15:29:27.457Z,54.43
2019-03-22T15:32:14.946Z,48.73
2019-03-22T15:35:02.252Z,49.53
2019-03-22T15:37:48.848Z,46.20
2019-03-22T15:40:18.464Z,45.00
2019-03-22T15:42:48.001Z,46.63
2019-03-22T15:45:17.562Z,44.47
2019-03-22T15:47:47.032Z,43.30
2019-03-22T15:50:17.060Z,42.30
2019-03-22T15:52:46.471Z,43.87
2019-03-22T15:55:15.954Z,43.00
2019-03-22T15:57:45.351Z,42.60
2019-03-22T16:00:17.075Z,45.43
2019-03-22T16:02:46.616Z,38.90
2019-03-22T16:05:16.673Z,39.13
2019-03-22T16:07:46.311Z,38.23
2019-03-22T16:10:15.924Z,39.17
2019-03-22T16:12:45.458Z,39.03
2019-03-22T16:15:14.974Z,38.33
2019-03-22T16:17:44.372Z,39.87
2019-03-22T16:20:14.316Z,37.37
2019-03-22T16:22:43.763Z,44.20
2019-03-22T16:25:13.565Z,40.80
2019-03-22T16:27:42.915Z,39.07
2019-03-22T16:30:12.851Z,39.40
2019-03-22T16:32:42.559Z,38.73
2019-03-22T16:35:12.371Z,35.90
2019-03-22T16:37:41.775Z,37.77
2019-03-22T16:40:12.829Z,41.10
2019-03-22T16:42:43.202Z,43.47
2019-03-22T16:45:14.839Z,39.57
2019-03-22T16:47:44.281Z,46.07
2019-03-22T16:50:23.184Z,40.10
2019-03-22T16:52:52.711Z,38.97
2019-03-22T16:55:23.975Z,44.73
2019-03-22T16:57:53.161Z,38.43
2019-03-22T17:00:22.667Z,42.70
2019-03-22T17:02:52.234Z,45.47
2019-03-22T17:05:21.684Z,40.80
2019-03-22T17:07:51.184Z,44.07
2019-03-22T17:10:20.704Z,40.07
2019-03-22T17:12:50.045Z,50.63
2019-03-22T17:15:19.606Z,46.40
2019-03-22T17:17:49.061Z,46.03
2019-03-22T17:20:18.468Z,46.00
2019-03-22T17:22:47.866Z,44.90
2019-03-22T17:25:17.351Z,46.13
2019-03-22T17:27:46.766Z,41.40
2019-03-22T17:30:16.536Z,48.27
2019-03-22T17:32:45.971Z,53.60
2019-03-22T17:35:15.534Z,39.43
2019-03-22T17:37:44.980Z,45.57
2019-03-22T17:40:14.705Z,52.90
2019-03-22T17:42:44.204Z,45.53
2019-03-22T17:45:15.591Z,44.73
2019-03-22T17:47:45.187Z,45.53
2019-03-22T17:50:14.721Z,47.83
2019-03-22T17:52:44.092Z,49.80
2019-03-22T17:55:13.744Z,46.23
2019-03-22T17:57:43.234Z,45.83
2019-03-22T18:00:13.496Z,49.37
2019-03-22T18:02:42.852Z,46.57
2019-03-22T18:05:12.910Z,50.63
2019-03-22T18:07:42.338Z,50.77
2019-03-22T18:10:12.187Z,49.00
2019-03-22T18:12:41.758Z,51.10
2019-03-22T18:15:11.959Z,49.57
2019-03-22T18:17:41.559Z,48.70
2019-03-22T18:20:11.479Z,51.27
2019-03-22T18:22:40.951Z,72.57
2019-03-22T18:25:11.052Z,50.27
2019-03-22T18:27:40.549Z,50.03
2019-03-22T18:30:10.135Z,57.37
2019-03-22T18:32:39.680Z,47.00
2019-03-22T18:35:09.241Z,53.13
2019-03-22T18:37:38.723Z,51.53
2019-03-22T18:40:08.367Z,54.50
2019-03-22T18:42:37.735Z,50.90
2019-03-22T18:45:07.371Z,49.57
2019-03-22T18:47:36.782Z,49.63
2019-03-22T18:50:07.284Z,56.57
2019-03-22T18:52:36.777Z,60.30
2019-03-22T18:55:07.495Z,56.00
2019-03-22T18:57:37.026Z,55.90
2019-03-22T19:00:07.376Z,55.70
2019-03-22T19:02:36.887Z,53.70
2019-03-22T19:05:07.407Z,62.50
2019-03-22T19:07:36.781Z,64.50
2019-03-22T19:10:07.617Z,61.10
2019-03-22T19:12:37.022Z,59.43
2019-03-22T19:15:08.000Z,61.93
2019-03-22T19:17:37.483Z,65.43
2019-03-22T19:20:07.662Z,65.93
2019-03-22T19:22:37.207Z,68.90
2019-03-22T19:25:06.804Z,69.20
2019-03-22T19:27:36.275Z,76.70
2019-03-22T19:30:07.135Z,75.43
2019-03-22T19:32:36.617Z,73.37
2019-03-22T19:35:07.389Z,74.47
2019-03-22T19:37:36.920Z,86.30
2019-03-22T19:40:07.377Z,79.77
2019-03-22T19:42:36.695Z,89.43
2019-03-22T19:45:06.985Z,84.77
2019-03-22T19:47:36.625Z,83.87
2019-03-22T19:50:06.928Z,90.40
2019-03-22T19:52:36.453Z,79.63
2019-03-22T19:55:07.327Z,85.43
2019-03-22T19:57:36.987Z,84.93
2019-03-22T20:00:07.337Z,93.80
2019-03-22T20:02:36.904Z,96.07
2019-03-22T20:05:07.140Z,92.70
2019-03-22T20:07:36.693Z,98.77
2019-03-22T20:10:07.735Z,96.33
2019-03-22T20:12:37.490Z,90.30
2019-03-22T20:15:07.791Z,88.40
2019-03-22T20:17:37.255Z,90.33
2019-03-22T20:20:07.879Z,95.43
2019-03-22T20:22:37.327Z,84.27
2019-03-22T20:25:07.201Z,96.53
2019-03-22T20:27:36.849Z,93.30
2019-03-22T20:30:06.711Z,87.67
2019-03-22T20:32:36.274Z,97.20
2019-03-22T20:35:15.718Z,91.87
2019-03-22T20:37:37.878Z,102.73
2019-03-22T20:40:07.942Z,99.57
2019-03-22T20:42:37.327Z,88.20
2019-03-22T20:45:07.257Z,86.57
2019-03-22T20:47:36.815Z,104.13
2019-03-22T20:50:06.643Z,85.20
2019-03-22T20:52:36.009Z,98.50
2019-03-22T20:55:07.261Z,111.53
2019-03-22T20:57:36.995Z,97.53
2019-03-22T21:00:07.303Z,92.97
2019-03-22T21:02:36.701Z,98.43
2019-03-22T21:05:06.247Z,111.97
2019-03-22T21:07:35.714Z,100.40
2019-03-22T21:10:05.515Z,112.03
2019-03-22T21:12:34.970Z,108.27
2019-03-22T21:15:05.164Z,117.90
2019-03-22T21:17:34.805Z,115.27
2019-03-22T21:20:04.824Z,116.03
2019-03-22T21:22:34.325Z,121.40
2019-03-22T21:25:04.117Z,111.00
2019-03-22T21:27:33.540Z,124.03
2019-03-22T21:30:03.126Z,122.27
2019-03-22T21:32:32.490Z,119.70
2019-03-22T21:35:02.117Z,122.13
2019-03-22T21:37:31.596Z,117.10
2019-03-22T21:40:01.031Z,120.17
2019-03-22T21:42:30.400Z,109.13
2019-03-22T21:44:59.867Z,131.43
2019-03-22T21:47:29.290Z,123.67
2019-03-22T21:49:58.751Z,128.50
2019-03-22T21:52:28.130Z,146.10
2019-03-22T21:54:57.452Z,144.43
2019-03-22T21:57:26.857Z,131.23
2019-03-22T21:59:56.218Z,124.60
2019-03-22T22:02:25.665Z,132.50
2019-03-22T22:04:55.094Z,130.50
2019-03-22T22:07:24.496Z,137.83
2019-03-22T22:09:53.967Z,145.80
2019-03-22T22:12:23.373Z,138.57
2019-03-22T22:14:52.952Z,134.37
2019-03-22T22:17:22.326Z,153.97
2019-03-22T22:19:51.879Z,134.90
2019-03-22T22:22:21.338Z,140.77
2019-03-22T22:24:50.746Z,128.20
2019-03-22T22:27:20.098Z,119.20
2019-03-22T22:29:49.579Z,132.07
2019-03-22T22:32:19.018Z,131.67
2019-03-22T22:34:48.524Z,123.30
2019-03-22T22:37:18.017Z,128.47
2019-03-22T22:39:47.422Z,131.33
2019-03-22T22:42:16.836Z,124.37
2019-03-22T22:44:46.234Z,114.23
2019-03-22T22:47:15.624Z,136.90
2019-03-22T22:49:45.111Z,130.73
2019-03-22T22:52:14.466Z,117.90
2019-03-22T22:54:43.898Z,130.80
2019-03-22T22:57:13.292Z,131.30
2019-03-22T22:59:42.808Z,135.10
2019-03-22T23:02:12.246Z,131.53
2019-03-22T23:04:41.684Z,144.33
2019-03-22T23:07:11.122Z,146.20
2019-03-22T23:09:40.504Z,151.97
2019-03-22T23:12:09.989Z,154.67
2019-03-22T23:14:39.578Z,147.70
2019-03-22T23:17:08.976Z,161.47
2019-03-22T23:19:38.466Z,146.83
2019-03-22T23:22:07.908Z,148.40
2019-03-22T23:24:37.345Z,158.93
2019-03-22T23:27:06.770Z,139.83
2019-03-22T23:29:36.216Z,147.73
2019-03-22T23:32:05.640Z,155.77
2019-03-22T23:34:35.050Z,151.93
2019-03-22T23:37:07.012Z,143.20
2019-03-22T23:39:35.679Z,170.47
2019-03-22T23:42:05.269Z,161.60
2019-03-22T23:44:34.816Z,160.97
2019-03-22T23:47:04.304Z,152.33
2019-03-22T23:49:33.752Z,165.40
2019-03-22T23:52:03.150Z,159.67
2019-03-22T23:54:32.588Z,173.93
2019-03-22T23:57:02.073Z,157.53
2019-03-22T23:59:31.520Z,176.53
